createdAt,value
2023-03-11T00:02:47.281Z,99.19
2023-03-11T00:07:48.802Z,99.27
2023-03-11T00:12:50.286Z,99.15
2023-03-11T00:17:51.895Z,98.98
2023-03-11T00:22:54.182Z,99.07
2023-03-11T00:27:56.295Z,99.26
2023-03-11T00:32:58.270Z,98.90
2023-03-11T00:38:02.540Z,98.87
2023-03-11T00:43:04.147Z,98.88
2023-03-11T00:48:06.477Z,98.95
2023-03-11T00:53:08.075Z,99.12
2023-03-11T00:58:10.998Z,98.88
2023-03-11T01:03:19.637Z,98.89
2023-03-11T01:08:21.182Z,98.56
2023-03-11T01:13:22.706Z,99.10
2023-03-11T01:18:24.260Z,98.78
2023-03-11T01:23:25.846Z,98.91
2023-03-11T01:28:28.797Z,98.86
2023-03-11T01:33:30.338Z,98.56
2023-03-11T01:38:31.878Z,98.73
2023-03-11T01:43:45.982Z,98.75
2023-03-11T01:48:58.728Z,98.52
2023-03-11T01:54:07.790Z,98.50
2023-03-11T01:59:12.806Z,98.93
2023-03-11T02:04:15.871Z,98.68
2023-03-11T02:09:17.573Z,98.54
2023-03-11T02:14:20.005Z,98.68
2023-03-11T02:19:42.660Z,98.28
2023-03-11T02:24:59.844Z,98.30
2023-03-11T02:30:02.240Z,98.09
2023-03-11T02:35:06.959Z,98.19
2023-03-11T02:40:24.068Z,97.98
2023-03-11T02:45:30.726Z,97.98
2023-03-11T02:50:34.435Z,98.03
2023-03-11T02:55:36.558Z,97.88
2023-03-11T03:00:38.671Z,97.59
2023-03-11T03:05:42.532Z,97.32
2023-03-11T03:10:44.726Z,97.21
2023-03-11T03:15:46.339Z,97.36
2023-03-11T03:20:47.948Z,96.64
2023-03-11T03:25:51.972Z,96.17
2023-03-11T03:30:54.183Z,96.39
2023-03-11T03:35:55.905Z,96.22
2023-03-11T03:41:01.777Z,95.84
2023-03-11T03:46:05.222Z,95.69
2023-03-11T03:51:14.164Z,95.44
2023-03-11T03:56:21.837Z,95.47
2023-03-11T04:01:23.602Z,95.89
2023-03-11T04:06:27.079Z,95.03
2023-03-11T04:11:40.237Z,95.06
2023-03-11T04:16:42.628Z,94.97
2023-03-11T04:21:46.987Z,94.75
2023-03-11T04:26:48.587Z,94.93
2023-03-11T04:31:52.242Z,94.64
2023-03-11T04:36:55.041Z,94.21
2023-03-11T04:42:03.974Z,94.51
2023-03-11T04:47:06.948Z,94.34
2023-03-11T04:52:09.468Z,93.92
2023-03-11T04:57:11.133Z,93.99
2023-03-11T05:02:17.035Z,94.00
2023-03-11T05:07:26.244Z,93.64
2023-03-11T05:12:28.439Z,93.69
2023-03-11T05:17:30.337Z,93.55
2023-03-11T05:22:32.456Z,93.14
2023-03-11T05:27:34.223Z,93.35
2023-03-11T05:32:36.017Z,93.08
2023-03-11T05:37:39.266Z,93.18
2023-03-11T05:42:41.857Z,93.21
2023-03-11T05:47:48.374Z,92.99
2023-03-11T05:52:51.894Z,92.86
2023-03-11T05:57:55.380Z,93.18
2023-03-11T06:02:58.020Z,92.75
2023-03-11T06:07:59.828Z,92.88
2023-03-11T06:13:01.778Z,92.84
2023-03-11T06:18:07.991Z,92.67
2023-03-11T06:23:10.840Z,92.68
2023-03-11T06:28:23.636Z,92.65
2023-03-11T06:33:36.288Z,92.52
2023-03-11T06:38:44.264Z,92.81
2023-03-11T06:43:47.131Z,92.68
2023-03-11T06:48:52.344Z,92.53
2023-03-11T06:53:55.831Z,92.32
2023-03-11T06:58:58.683Z,92.20
2023-03-11T07:04:05.669Z,92.08
2023-03-11T07:09:08.812Z,92.05
2023-03-11T07:14:17.952Z,92.13
2023-03-11T07:19:23.385Z,91.96
2023-03-11T07:24:25.228Z,91.97
2023-03-11T07:29:26.830Z,92.04
2023-03-11T07:34:28.568Z,91.55
2023-03-11T07:39:33.048Z,91.70
2023-03-11T07:44:34.549Z,91.38
2023-03-11T07:49:36.129Z,90.91
2023-03-11T07:54:38.691Z,89.09
2023-03-11T07:59:40.939Z,85.65
2023-03-11T08:04:43.160Z,81.96
2023-03-11T08:09:44.664Z,79.01
2023-03-11T08:14:46.186Z,76.88
2023-03-11T08:19:49.454Z,74.68
2023-03-11T08:24:52.797Z,72.93
2023-03-11T08:29:54.414Z,71.35
2023-03-11T08:34:56.116Z,70.73
2023-03-11T08:39:57.925Z,71.19
2023-03-11T08:44:59.586Z,69.87
2023-03-11T08:50:01.391Z,69.67
2023-03-11T08:55:04.816Z,69.56
2023-03-11T09:00:08.208Z,69.68
2023-03-11T09:05:10.488Z,69.51
2023-03-11T09:10:15.463Z,69.53
2023-03-11T09:15:17.110Z,69.84
2023-03-11T09:20:18.623Z,69.33
2023-03-11T09:25:20.205Z,68.57
2023-03-11T09:30:21.756Z,68.82
2023-03-11T09:35:23.605Z,68.65
2023-03-11T09:40:32.815Z,68.34
2023-03-11T09:45:40.953Z,68.17
2023-03-11T09:51:02.996Z,67.94
2023-03-11T09:56:11.560Z,68.11
2023-03-11T10:01:21.650Z,68.43
2023-03-11T10:06:25.842Z,68.90
2023-03-11T10:11:49.599Z,69.10
2023-03-11T10:17:14.195Z,69.29
2023-03-11T10:22:22.618Z,69.13
2023-03-11T10:27:42.291Z,69.10
2023-03-11T10:32:53.684Z,69.70
2023-03-11T10:38:02.882Z,69.66
2023-03-11T10:43:11.661Z,70.14
2023-03-11T10:48:15.715Z,70.15
2023-03-11T10:53:19.836Z,69.81
2023-03-11T10:58:27.365Z,69.96
2023-03-11T11:03:29.581Z,69.71
2023-03-11T11:08:32.388Z,70.15
2023-03-11T11:13:35.346Z,70.38
2023-03-11T11:18:41.981Z,70.48
2023-03-11T11:23:48.460Z,71.02
2023-03-11T11:29:12.235Z,70.38
2023-03-11T11:34:32.105Z,70.71
2023-03-11T11:39:51.216Z,70.41
2023-03-11T11:45:37.958Z,70.28
2023-03-11T11:50:48.394Z,70.92
2023-03-11T11:55:55.304Z,70.71
2023-03-11T12:01:23.145Z,70.73
2023-03-11T12:06:24.764Z,70.52
2023-03-11T12:11:34.832Z,70.41
2023-03-11T12:17:05.118Z,70.16
2023-03-11T12:22:12.442Z,69.91
2023-03-11T12:27:27.666Z,69.75
2023-03-11T12:32:49.848Z,70.20
2023-03-11T12:38:04.390Z,70.51
2023-03-11T12:43:42.721Z,70.09
2023-03-11T12:48:44.545Z,69.54
2023-03-11T12:53:48.916Z,69.98
2023-03-11T12:59:09.861Z,70.12
2023-03-11T13:04:33.035Z,70.10
2023-03-11T13:09:34.993Z,70.06
2023-03-11T13:14:36.881Z,70.00
2023-03-11T13:19:48.735Z,70.05
2023-03-11T13:25:01.445Z,69.82
2023-03-11T13:36:49.170Z,69.98
2023-03-11T13:41:55.850Z,70.16
2023-03-11T13:47:17.462Z,69.89
2023-03-11T13:52:56.339Z,69.99
2023-03-11T13:57:58.474Z,70.36
2023-03-11T14:03:03.443Z,70.77
2023-03-11T14:08:28.342Z,71.04
2023-03-11T14:13:38.835Z,71.11
2023-03-11T14:18:48.614Z,70.85
2023-03-11T14:23:52.636Z,71.23
2023-03-11T14:28:57.153Z,71.45
2023-03-11T14:34:15.021Z,71.25
2023-03-11T14:39:40.736Z,71.60
2023-03-11T14:44:47.272Z,71.71
2023-03-11T14:49:52.417Z,71.86
2023-03-11T14:54:57.240Z,71.69
2023-03-11T14:59:59.628Z,72.00
2023-03-11T15:05:16.906Z,71.79
2023-03-11T15:10:23.807Z,72.22
2023-03-11T15:15:34.745Z,71.78
2023-03-11T15:20:42.988Z,72.10
2023-03-11T15:26:00.132Z,72.30
2023-03-11T15:37:27.115Z,72.07
2023-03-11T15:54:26.416Z,71.57
2023-03-11T15:59:53.304Z,71.73
2023-03-11T16:04:58.918Z,71.74
2023-03-11T16:10:10.135Z,71.45
2023-03-11T16:15:35.202Z,71.71
2023-03-11T16:21:06.890Z,71.66
2023-03-11T16:27:00.357Z,71.39
2023-03-11T16:32:53.715Z,72.12
2023-03-11T16:38:50.436Z,72.06
2023-03-11T16:44:57.854Z,72.40
2023-03-11T16:51:50.194Z,72.35
2023-03-11T17:02:40.891Z,72.85
2023-03-11T17:14:22.577Z,73.08
2023-03-11T17:19:32.739Z,73.56
2023-03-11T17:24:53.154Z,75.16
2023-03-11T17:30:35.700Z,77.08
2023-03-11T17:36:22.541Z,78.69
2023-03-11T17:53:16.675Z,82.77
2023-03-11T18:04:36.210Z,84.24
2023-03-11T18:10:00.334Z,84.69
2023-03-11T18:15:24.359Z,85.09
2023-03-11T18:20:25.891Z,85.72
2023-03-11T18:31:50.961Z,86.32
2023-03-11T18:37:21.603Z,86.03
2023-03-11T18:43:03.512Z,86.59
2023-03-11T18:48:20.760Z,86.42
2023-03-11T18:53:58.008Z,86.60
2023-03-11T18:59:01.353Z,86.59
2023-03-11T19:04:03.483Z,86.69
2023-03-11T19:09:13.557Z,86.66
2023-03-11T19:14:21.320Z,86.31
2023-03-11T19:19:55.990Z,86.36
2023-03-11T19:25:11.447Z,86.49
2023-03-11T19:30:31.405Z,86.45
2023-03-11T19:36:05.756Z,86.32
2023-03-11T19:41:35.871Z,86.47
2023-03-11T19:47:03.463Z,86.28
2023-03-11T19:52:21.493Z,86.21
2023-03-11T19:57:23.361Z,86.62
2023-03-11T20:02:33.533Z,86.55
2023-03-11T20:09:57.372Z,86.75
2023-03-11T20:26:08.691Z,87.10
2023-03-11T20:31:17.133Z,87.11
2023-03-11T20:36:24.364Z,87.32
2023-03-11T20:41:36.258Z,87.13
2023-03-11T20:46:41.399Z,86.92
2023-03-11T20:51:53.517Z,87.23
2023-03-11T21:02:22.653Z,87.06
2023-03-11T21:07:28.112Z,87.35
2023-03-11T21:12:32.622Z,86.96
2023-03-11T21:17:40.830Z,86.88
2023-03-11T21:22:51.856Z,87.09
2023-03-11T21:27:55.121Z,87.09
2023-03-11T21:33:16.274Z,87.11
2023-03-11T21:38:18.089Z,87.18
2023-03-11T21:43:31.057Z,87.20
2023-03-11T21:48:33.628Z,86.88
2023-03-11T21:53:41.378Z,87.13
2023-03-11T21:58:47.732Z,87.30
2023-03-11T22:03:49.608Z,87.48
2023-03-11T22:08:52.743Z,87.39
2023-03-11T22:14:03.625Z,87.33
2023-03-11T22:19:15.560Z,87.21
2023-03-11T22:24:42.219Z,87.61
2023-03-11T22:29:44.408Z,87.56
2023-03-11T22:34:46.023Z,87.73
2023-03-11T22:39:48.318Z,87.70
2023-03-11T22:44:50.009Z,87.90
2023-03-11T22:49:54.402Z,87.74
2023-03-11T22:54:56.146Z,87.99
2023-03-11T23:00:00.929Z,88.54
2023-03-11T23:05:29.065Z,88.48
2023-03-11T23:22:06.883Z,88.71
2023-03-11T23:27:08.435Z,89.00
2023-03-11T23:32:11.372Z,88.93
2023-03-11T23:37:13.554Z,89.14
2023-03-11T23:42:25.883Z,89.02
2023-03-11T23:47:28.930Z,89.20
2023-03-11T23:52:36.430Z,89.24
2023-03-11T23:57:39.344Z,89.59
